createdAt,value
2022-09-15T00:00:30.007Z,60.89
2022-09-15T00:03:35.517Z,63.49
2022-09-15T00:06:23.601Z,62.65
2022-09-15T00:09:11.712Z,62.56
2022-09-15T00:12:00.106Z,61.19
2022-09-15T00:14:47.942Z,56.78
2022-09-15T00:17:35.886Z,57.28
2022-09-15T00:20:23.863Z,60.06
2022-09-15T00:23:14.884Z,62.05
2022-09-15T00:26:08.187Z,63.26
2022-09-15T00:28:58.677Z,60.52
2022-09-15T00:31:46.631Z,59.72
2022-09-15T00:34:34.906Z,58.74
2022-09-15T00:37:22.940Z,61.15
2022-09-15T00:40:11.191Z,63.29
2022-09-15T00:42:58.879Z,62.95
2022-09-15T00:45:47.225Z,59.56
2022-09-15T00:48:37.763Z,59.98
2022-09-15T00:51:41.400Z,61.96
2022-09-15T00:54:41.456Z,64.17
2022-09-15T00:57:32.476Z,62.58
2022-09-15T01:00:24.179Z,60.52
2022-09-15T01:03:12.015Z,58.82
2022-09-15T01:06:41.247Z,59.90
2022-09-15T01:09:48.032Z,62.80
2022-09-15T01:12:36.037Z,61.38
2022-09-15T01:15:32.831Z,61.17
2022-09-15T01:18:29.506Z,59.56
2022-09-15T01:21:35.827Z,58.78
2022-09-15T01:24:41.729Z,62.56
2022-09-15T01:28:33.132Z,63.50
2022-09-15T01:32:22.649Z,61.52
2022-09-15T01:35:22.666Z,59.68
2022-09-15T01:38:26.783Z,59.34
2022-09-15T01:42:10.238Z,63.33
2022-09-15T01:45:07.676Z,62.35
2022-09-15T01:47:59.888Z,61.03
2022-09-15T01:50:54.225Z,60.15
2022-09-15T01:53:42.169Z,59.17
2022-09-15T01:56:30.085Z,60.35
2022-09-15T01:59:18.115Z,63.57
2022-09-15T02:02:20.791Z,62.77
2022-09-15T02:05:20.915Z,62.03
2022-09-15T02:08:28.700Z,60.74
2022-09-15T02:11:19.837Z,60.17
2022-09-15T02:14:22.309Z,60.66
2022-09-15T02:17:17.326Z,59.03
2022-09-15T02:20:20.729Z,60.51
2022-09-15T02:23:18.983Z,63.60
2022-09-15T02:26:16.971Z,63.62
2022-09-15T02:29:10.248Z,62.00
2022-09-15T02:32:06.779Z,62.24
2022-09-15T02:34:57.303Z,61.80
2022-09-15T02:37:46.873Z,59.38
2022-09-15T02:40:36.335Z,60.65
2022-09-15T02:43:24.563Z,63.32
2022-09-15T02:46:14.311Z,63.65
2022-09-15T02:49:03.521Z,62.36
2022-09-15T02:51:51.178Z,61.04
2022-09-15T02:54:39.203Z,60.48
2022-09-15T02:57:27.098Z,59.87
2022-09-15T03:00:16.990Z,60.91
2022-09-15T03:03:04.915Z,60.57
2022-09-15T03:05:52.833Z,59.73
2022-09-15T03:08:41.445Z,60.44
2022-09-15T03:11:31.424Z,63.92
2022-09-15T03:14:19.583Z,63.58
2022-09-15T03:17:07.423Z,62.11
2022-09-15T03:19:55.536Z,61.85
2022-09-15T03:22:47.787Z,61.03
2022-09-15T03:25:36.333Z,60.70
2022-09-15T03:28:24.379Z,60.29
2022-09-15T03:31:12.461Z,60.03
2022-09-15T03:34:00.316Z,60.37
2022-09-15T03:36:48.160Z,60.43
2022-09-15T03:39:36.036Z,60.49
2022-09-15T03:42:24.024Z,60.23
2022-09-15T03:45:11.889Z,59.84
2022-09-15T03:47:59.844Z,59.25
2022-09-15T03:50:48.111Z,61.10
2022-09-15T03:53:39.340Z,65.09
2022-09-15T03:56:33.467Z,64.21
2022-09-15T03:59:21.724Z,62.39
2022-09-15T04:02:09.781Z,61.96
2022-09-15T04:04:57.732Z,61.63
2022-09-15T04:07:45.625Z,60.91
2022-09-15T04:10:33.931Z,60.77
2022-09-15T04:13:27.922Z,60.21
2022-09-15T04:16:19.749Z,60.71
2022-09-15T04:19:07.715Z,59.88
2022-09-15T04:21:55.335Z,60.19
2022-09-15T04:24:44.304Z,60.36
2022-09-15T04:27:34.626Z,60.44
2022-09-15T04:30:22.352Z,60.05
2022-09-15T04:33:10.270Z,59.93
2022-09-15T04:36:04.426Z,59.68
2022-09-15T04:38:52.723Z,59.58
2022-09-15T04:41:40.707Z,59.42
2022-09-15T04:44:29.317Z,60.66
2022-09-15T04:47:17.750Z,63.40
2022-09-15T04:50:06.434Z,63.39
2022-09-15T04:52:53.926Z,61.99
2022-09-15T04:55:42.646Z,61.37
2022-09-15T04:58:30.787Z,61.02
2022-09-15T05:01:31.247Z,60.23
2022-09-15T05:04:19.228Z,60.11
2022-09-15T05:07:07.425Z,59.57
2022-09-15T05:09:55.640Z,59.18
2022-09-15T05:12:43.518Z,58.49
2022-09-15T05:15:33.724Z,62.30
2022-09-15T05:18:21.740Z,63.94
2022-09-15T05:21:13.519Z,62.37
2022-09-15T05:24:01.824Z,61.19
2022-09-15T05:26:50.113Z,60.24
2022-09-15T05:29:37.803Z,59.30
2022-09-15T05:32:26.440Z,60.45
2022-09-15T05:35:14.238Z,63.81
2022-09-15T05:38:02.208Z,62.29
2022-09-15T05:40:50.771Z,60.58
2022-09-15T05:43:40.157Z,59.30
2022-09-15T05:46:29.535Z,59.67
2022-09-15T05:49:17.491Z,62.31
2022-09-15T05:52:05.477Z,62.86
2022-09-15T05:54:58.327Z,60.96
2022-09-15T05:57:47.272Z,59.05
2022-09-15T06:00:35.496Z,59.59
2022-09-15T06:03:28.686Z,63.36
2022-09-15T06:06:18.241Z,62.37
2022-09-15T06:09:06.788Z,60.25
2022-09-15T06:11:54.296Z,58.93
2022-09-15T06:14:43.578Z,60.54
2022-09-15T06:17:34.288Z,62.95
2022-09-15T06:20:27.021Z,62.12
2022-09-15T06:23:15.042Z,60.24
2022-09-15T06:26:16.844Z,58.52
2022-09-15T06:29:05.970Z,60.79
2022-09-15T06:32:03.254Z,63.10
2022-09-15T06:34:51.220Z,62.77
2022-09-15T06:37:41.975Z,60.17
2022-09-15T06:40:30.857Z,57.37
2022-09-15T06:43:18.810Z,59.30
2022-09-15T06:46:29.113Z,61.77
2022-09-15T06:49:18.112Z,62.80
2022-09-15T06:52:14.672Z,60.42
2022-09-15T06:55:21.601Z,59.07
2022-09-15T06:58:09.376Z,57.38
2022-09-15T07:01:04.279Z,55.48
2022-09-15T07:03:52.918Z,52.48
2022-09-15T07:06:40.837Z,48.30
2022-09-15T07:09:28.887Z,44.74
2022-09-15T07:12:16.680Z,42.41
2022-09-15T07:15:05.498Z,39.69
2022-09-15T07:17:53.911Z,36.12
2022-09-15T07:20:42.102Z,35.70
2022-09-15T07:23:30.214Z,34.09
2022-09-15T07:26:27.516Z,33.51
2022-09-15T07:29:15.171Z,32.51
2022-09-15T07:32:03.533Z,31.56
2022-09-15T07:34:54.499Z,32.27
2022-09-15T07:37:44.869Z,32.12
2022-09-15T07:40:32.659Z,32.60
2022-09-15T07:43:21.986Z,33.16
2022-09-15T07:46:11.173Z,33.22
2022-09-15T07:49:03.348Z,32.10
2022-09-15T07:51:52.760Z,31.91
2022-09-15T07:54:40.491Z,30.71
2022-09-15T07:57:28.426Z,30.38
2022-09-15T08:00:17.689Z,30.23
2022-09-15T08:03:05.580Z,30.16
2022-09-15T08:06:01.891Z,29.59
2022-09-15T08:08:53.988Z,28.82
2022-09-15T08:11:54.963Z,29.46
2022-09-15T08:14:45.048Z,30.35
2022-09-15T08:17:35.610Z,32.06
2022-09-15T08:20:29.075Z,34.16
2022-09-15T08:23:20.986Z,36.22
2022-09-15T08:26:14.557Z,38.07
2022-09-15T08:29:16.578Z,40.02
2022-09-15T08:32:08.267Z,42.21
2022-09-15T08:35:00.099Z,43.98
2022-09-15T08:37:47.919Z,45.94
2022-09-15T08:40:38.067Z,47.29
2022-09-15T08:43:30.323Z,48.08
2022-09-15T08:46:32.170Z,49.16
2022-09-15T08:49:47.814Z,51.16
2022-09-15T08:53:02.192Z,52.63
2022-09-15T08:55:54.419Z,53.34
2022-09-15T08:58:42.332Z,54.25
2022-09-15T09:02:07.131Z,55.09
2022-09-15T09:05:13.967Z,56.26
2022-09-15T09:08:07.979Z,56.60
2022-09-15T09:11:19.597Z,56.30
2022-09-15T09:14:31.885Z,55.55
2022-09-15T09:17:35.535Z,54.40
2022-09-15T09:21:13.294Z,53.31
2022-09-15T09:24:27.778Z,53.33
2022-09-15T09:27:20.697Z,53.74
2022-09-15T09:30:21.347Z,53.14
2022-09-15T09:33:31.023Z,52.89
2022-09-15T09:36:19.890Z,52.29
2022-09-15T09:39:15.412Z,51.39
2022-09-15T09:42:05.969Z,49.71
2022-09-15T09:44:54.738Z,48.99
2022-09-15T09:47:43.376Z,45.79
2022-09-15T09:50:43.250Z,43.50
2022-09-15T09:53:33.925Z,42.46
2022-09-15T09:56:27.454Z,43.27
2022-09-15T09:59:32.055Z,44.83
2022-09-15T10:02:26.038Z,45.62
2022-09-15T10:05:20.804Z,45.82
2022-09-15T10:08:20.593Z,46.21
2022-09-15T10:11:10.740Z,46.14
2022-09-15T10:13:59.027Z,45.97
2022-09-15T10:17:11.032Z,46.23
2022-09-15T10:19:59.500Z,46.88
2022-09-15T10:22:47.454Z,47.40
2022-09-15T10:25:58.686Z,47.55
2022-09-15T10:29:14.277Z,48.07
2022-09-15T10:32:24.972Z,46.46
2022-09-15T10:35:19.543Z,45.11
2022-09-15T10:38:14.210Z,44.33
2022-09-15T10:41:29.763Z,43.61
2022-09-15T10:45:22.840Z,43.71
2022-09-15T10:48:46.799Z,43.69
2022-09-15T10:52:16.332Z,44.49
2022-09-15T10:55:52.611Z,43.72
2022-09-15T10:59:52.884Z,39.67
2022-09-15T11:03:25.300Z,39.15
2022-09-15T11:06:40.327Z,40.20
2022-09-15T11:09:46.622Z,40.99
2022-09-15T11:13:01.619Z,41.95
2022-09-15T11:16:25.864Z,42.84
2022-09-15T11:19:35.503Z,43.82
2022-09-15T11:22:31.611Z,44.65
2022-09-15T11:25:28.239Z,44.72
2022-09-15T11:28:28.294Z,44.28
2022-09-15T11:31:24.596Z,44.46
2022-09-15T11:34:27.088Z,44.52
2022-09-15T11:37:21.625Z,44.95
2022-09-15T11:40:33.825Z,44.96
2022-09-15T11:43:50.887Z,45.32
2022-09-15T11:47:14.260Z,45.70
2022-09-15T11:50:11.035Z,45.49
2022-09-15T11:53:09.423Z,43.71
2022-09-15T11:56:20.642Z,42.78
2022-09-15T11:59:20.969Z,40.69
2022-09-15T12:02:31.031Z,40.07
2022-09-15T12:06:04.498Z,38.73
2022-09-15T12:09:02.597Z,38.04
2022-09-15T12:12:04.834Z,37.72
2022-09-15T12:14:53.122Z,38.42
2022-09-15T12:18:37.166Z,38.69
2022-09-15T12:21:36.011Z,39.61
2022-09-15T12:24:48.508Z,40.46
2022-09-15T12:27:36.402Z,41.64
2022-09-15T12:30:42.944Z,42.53
2022-09-15T12:33:59.585Z,43.25
2022-09-15T12:36:53.424Z,44.19
2022-09-15T12:39:42.195Z,44.77
2022-09-15T12:42:32.264Z,45.21
2022-09-15T12:45:27.333Z,45.72
2022-09-15T12:48:34.237Z,45.84
2022-09-15T12:51:28.116Z,45.67
2022-09-15T12:54:27.880Z,45.36
2022-09-15T12:57:36.985Z,46.59
2022-09-15T13:00:54.839Z,47.95
2022-09-15T13:07:52.969Z,49.91
2022-09-15T13:11:09.510Z,49.95
2022-09-15T13:14:03.961Z,50.20
2022-09-15T13:17:06.748Z,50.80
2022-09-15T13:19:59.972Z,50.97
2022-09-15T13:22:56.456Z,51.57
2022-09-15T13:25:46.631Z,51.74
2022-09-15T13:28:35.383Z,52.10
2022-09-15T13:31:53.525Z,52.58
2022-09-15T13:35:07.840Z,51.80
2022-09-15T13:38:16.928Z,51.54
2022-09-15T13:41:40.379Z,51.53
2022-09-15T13:44:37.673Z,51.44
2022-09-15T13:47:31.793Z,51.42
2022-09-15T13:50:41.553Z,51.12
2022-09-15T13:53:43.645Z,50.16
2022-09-15T13:56:40.069Z,49.47
2022-09-15T13:59:33.141Z,48.32
2022-09-15T14:02:21.265Z,46.89
2022-09-15T14:05:09.582Z,45.75
2022-09-15T14:08:04.344Z,45.63
2022-09-15T14:10:58.435Z,45.70
2022-09-15T14:13:51.264Z,45.73
2022-09-15T14:16:39.915Z,45.10
2022-09-15T14:19:36.901Z,45.50
2022-09-15T14:25:51.684Z,47.80
2022-09-15T14:29:02.256Z,50.90
2022-09-15T14:32:07.367Z,52.86
2022-09-15T14:34:59.988Z,54.59
2022-09-15T14:38:00.010Z,55.96
2022-09-15T14:40:56.965Z,57.70
2022-09-15T14:43:48.967Z,59.73
2022-09-15T14:46:38.464Z,56.81
2022-09-15T14:49:29.027Z,57.13
2022-09-15T14:52:36.112Z,58.33
2022-09-15T14:55:50.742Z,58.41
2022-09-15T14:58:52.980Z,59.02
2022-09-15T15:02:20.332Z,59.38
2022-09-15T15:05:22.833Z,60.32
2022-09-15T15:08:39.458Z,60.99
2022-09-15T15:11:29.556Z,61.10
2022-09-15T15:14:18.739Z,60.93
2022-09-15T15:17:07.017Z,59.98
2022-09-15T15:20:08.849Z,59.37
2022-09-15T15:23:26.008Z,58.97
2022-09-15T15:26:42.660Z,59.06
2022-09-15T15:29:48.432Z,59.60
2022-09-15T15:32:46.126Z,59.73
2022-09-15T15:35:35.943Z,60.17
2022-09-15T15:38:25.643Z,60.08
2022-09-15T15:41:35.622Z,60.21
2022-09-15T15:44:29.022Z,60.32
2022-09-15T15:47:19.808Z,60.22
2022-09-15T15:50:28.502Z,60.25
2022-09-15T15:53:16.687Z,60.48
2022-09-15T15:56:04.894Z,60.77
2022-09-15T15:58:53.157Z,61.02
2022-09-15T16:01:42.110Z,61.20
2022-09-15T16:04:35.126Z,61.39
2022-09-15T16:07:46.729Z,61.87
2022-09-15T16:10:51.096Z,62.02
2022-09-15T16:13:39.685Z,58.72
2022-09-15T16:16:28.160Z,57.23
2022-09-15T16:19:16.649Z,58.51
2022-09-15T16:22:05.498Z,59.26
2022-09-15T16:24:55.943Z,60.39
2022-09-15T16:27:43.878Z,61.18
2022-09-15T16:30:33.277Z,62.43
2022-09-15T16:33:21.167Z,60.00
2022-09-15T16:36:16.212Z,58.31
2022-09-15T16:39:04.267Z,59.48
2022-09-15T16:41:52.959Z,60.70
2022-09-15T16:44:41.049Z,62.58
2022-09-15T16:47:28.843Z,63.24
2022-09-15T16:50:31.149Z,60.77
2022-09-15T16:53:31.123Z,58.61
2022-09-15T16:56:19.569Z,59.82
2022-09-15T16:59:26.850Z,61.47
2022-09-15T17:02:16.344Z,63.04
2022-09-15T17:05:25.123Z,63.35
2022-09-15T17:08:14.891Z,58.98
2022-09-15T17:11:05.265Z,59.56
2022-09-15T17:13:53.455Z,61.39
2022-09-15T17:16:41.371Z,63.02
2022-09-15T17:19:29.266Z,63.80
2022-09-15T17:22:17.114Z,59.52
2022-09-15T17:25:37.445Z,58.79
2022-09-15T17:28:36.710Z,60.91
2022-09-15T17:31:25.286Z,64.34
2022-09-15T17:34:14.568Z,63.24
2022-09-15T17:37:02.293Z,63.00
2022-09-15T17:39:58.697Z,61.19
2022-09-15T17:43:01.891Z,58.49
2022-09-15T17:46:07.969Z,59.41
2022-09-15T17:48:55.956Z,63.41
2022-09-15T17:51:43.988Z,65.44
2022-09-15T17:54:32.352Z,64.61
2022-09-15T17:57:32.120Z,62.38
2022-09-15T18:01:08.835Z,61.02
2022-09-15T18:04:13.382Z,57.68
2022-09-15T18:07:01.301Z,59.08
2022-09-15T18:09:51.672Z,61.47
2022-09-15T18:12:43.979Z,64.20
2022-09-15T18:15:35.610Z,62.36
2022-09-15T18:18:32.237Z,60.83
2022-09-15T18:21:29.869Z,58.89
2022-09-15T18:24:18.030Z,61.12
2022-09-15T18:27:06.494Z,63.52
2022-09-15T18:29:56.965Z,62.93
2022-09-15T18:32:45.507Z,60.08
2022-09-15T18:35:35.229Z,58.38
2022-09-15T18:38:23.850Z,60.47
2022-09-15T18:41:11.985Z,63.16
2022-09-15T18:43:59.573Z,63.26
2022-09-15T18:46:47.501Z,61.44
2022-09-15T18:49:35.562Z,57.49
2022-09-15T18:52:23.708Z,58.29
2022-09-15T18:55:22.055Z,60.94
2022-09-15T18:58:14.306Z,63.29
2022-09-15T19:01:06.100Z,61.94
2022-09-15T19:03:54.409Z,58.53
2022-09-15T19:06:42.783Z,59.17
2022-09-15T19:09:31.702Z,61.39
2022-09-15T19:15:11.532Z,62.34
2022-09-15T19:21:21.872Z,58.70
2022-09-15T19:24:43.134Z,60.68
2022-09-15T19:27:31.087Z,63.23
2022-09-15T19:30:19.245Z,61.44
2022-09-15T19:33:11.293Z,59.08
2022-09-15T19:36:26.927Z,57.88
2022-09-15T19:39:15.401Z,60.28
2022-09-15T19:42:05.598Z,62.74
2022-09-15T19:44:54.447Z,62.76
2022-09-15T19:47:42.557Z,59.11
2022-09-15T19:50:30.494Z,59.13
2022-09-15T19:53:18.788Z,60.02
2022-09-15T19:56:08.035Z,65.00
2022-09-15T19:58:58.458Z,65.47
2022-09-15T20:01:46.849Z,61.92
2022-09-15T20:04:53.263Z,60.94
2022-09-15T20:07:41.223Z,58.66
2022-09-15T20:10:31.736Z,59.17
2022-09-15T20:13:20.580Z,62.47
2022-09-15T20:16:08.584Z,62.60
2022-09-15T20:18:57.022Z,62.11
2022-09-15T20:21:51.574Z,58.29
2022-09-15T20:24:43.117Z,59.88
2022-09-15T20:27:32.609Z,61.80
2022-09-15T20:30:21.523Z,63.94
2022-09-15T20:33:12.538Z,62.43
2022-09-15T20:36:07.703Z,61.89
2022-09-15T20:38:56.763Z,59.58
2022-09-15T20:41:55.793Z,61.10
2022-09-15T20:44:47.247Z,63.86
2022-09-15T20:47:35.323Z,62.81
2022-09-15T20:50:23.180Z,61.00
2022-09-15T20:53:11.232Z,59.24
2022-09-15T20:56:02.721Z,60.27
2022-09-15T20:58:51.198Z,63.41
2022-09-15T21:01:40.149Z,63.06
2022-09-15T21:04:28.368Z,60.48
2022-09-15T21:07:16.972Z,59.16
2022-09-15T21:10:05.429Z,61.04
2022-09-15T21:12:54.339Z,64.49
2022-09-15T21:15:42.844Z,64.62
2022-09-15T21:18:36.906Z,60.91
2022-09-15T21:21:31.283Z,61.42
2022-09-15T21:24:22.620Z,58.96
2022-09-15T21:27:27.026Z,61.10
2022-09-15T21:30:15.135Z,64.17
2022-09-15T21:33:03.056Z,62.60
2022-09-15T21:35:51.148Z,60.92
2022-09-15T21:38:44.015Z,59.49
2022-09-15T21:41:31.776Z,61.05
2022-09-15T21:44:19.709Z,64.18
2022-09-15T21:47:07.211Z,63.11
2022-09-15T21:49:55.330Z,62.26
2022-09-15T21:52:43.522Z,60.99
2022-09-15T21:55:31.307Z,60.17
2022-09-15T21:58:21.524Z,58.85
2022-09-15T22:01:35.381Z,59.96
2022-09-15T22:04:23.380Z,63.72
2022-09-15T22:07:11.333Z,64.00
2022-09-15T22:09:59.305Z,62.72
2022-09-15T22:12:47.160Z,60.92
2022-09-15T22:15:35.562Z,59.91
2022-09-15T22:18:23.127Z,59.08
2022-09-15T22:21:24.261Z,61.90
2022-09-15T22:24:14.150Z,64.41
2022-09-15T22:27:01.862Z,63.51
2022-09-15T22:29:49.784Z,62.14
2022-09-15T22:32:37.941Z,60.45
2022-09-15T22:35:26.026Z,59.91
2022-09-15T22:38:13.832Z,59.51
2022-09-15T22:41:09.235Z,61.52
2022-09-15T22:43:57.724Z,64.13
2022-09-15T22:46:46.408Z,63.70
2022-09-15T22:49:34.372Z,62.02
2022-09-15T22:52:22.222Z,61.56
2022-09-15T22:55:10.157Z,60.14
2022-09-15T22:57:58.531Z,59.00
2022-09-15T23:00:46.501Z,63.22
2022-09-15T23:03:34.208Z,64.53
2022-09-15T23:06:23.673Z,62.59
2022-09-15T23:09:11.606Z,61.87
2022-09-15T23:11:59.685Z,61.15
2022-09-15T23:14:47.639Z,61.02
2022-09-15T23:17:35.580Z,60.00
2022-09-15T23:20:23.426Z,59.33
2022-09-15T23:23:11.501Z,59.04
2022-09-15T23:25:59.322Z,62.45
2022-09-15T23:28:49.364Z,63.45
2022-09-15T23:31:36.992Z,62.26
2022-09-15T23:34:24.855Z,60.93
2022-09-15T23:37:12.801Z,60.04
2022-09-15T23:40:00.727Z,60.42
2022-09-15T23:42:48.775Z,59.07
2022-09-15T23:45:37.152Z,60.52
2022-09-15T23:48:25.014Z,63.72
2022-09-15T23:51:13.160Z,63.90
2022-09-15T23:54:02.407Z,63.17
2022-09-15T23:56:50.208Z,60.86
2022-09-15T23:59:38.174Z,60.21
